< < Back
Terminal Aerodrome Forecast


Current Version              Previous Versions:   1  2  3  4  5  6  7  8  9  

Terminal Aerodrome Forecast

259
FTUS42 KMLB 282346
TAFDAB
TAF
KDAB 282346Z 2900/2924 07009KT P6SM VCSH SCT030 SCT250
      TEMPO 2900/2902 -SHRA BKN035
     FM290200 06006KT P6SM FEW030 SCT250
     FM291400 08008KT P6SM VCSH SCT035 BKN080 BKN250
     FM291800 08010G18KT P6SM BKN035 BKN250=



Latest METAR

511
SAUS80 KWBC 292100 RRA
MTRDAB
METAR KDAB 292053Z 10008G17KT 10SM TS SCT026CB SCT035 BKN150 29/23 A2994
RMK AO2 LTG DSNT SW AND W RAE25 SLP138 OCNL LTGIC SW-NW-N TS
SW-NW-N MOV W CB DSNT ALQDS P0000 60000 T02940228 56013


USA.gov is the U.S. government's official web portal to all federal, state and local government web resources and services.